Anderson Island, Washington
Current Conditions -  °F | °C
As of 8:03 AM on Thursday 29 Jan 2015 (Local Time) from KGRF Reporting Station
Haze Haze  
Wind Chill: 43°   Ceiling: 500
Heat Index: 43°   Visibility: 3mi
Dew Point: 43°   Wind: 2mph
Humidity: 100%   Direction: 310°NW
Pressure: 30.34"   Gusts: NA
Location:  47.16°N, 122.7°W
Report Text: KGRF 291603Z 31002KT 3SM BR OVC005 06/06 A3034 RMK AO2A
Loading
Personal Weather Stations






























Interactive Weather Map New forecast layout! Learn more

10-Day Weather Forecast

Advertisements
Track Severe Weather on mobile